createdAt,value
2017-04-09T00:00:01.401Z,1018.45
2017-04-09T00:00:10.682Z,1018.41
2017-04-09T00:00:20.674Z,1018.44
2017-04-09T00:00:31.008Z,1018.44
2017-04-09T00:00:41.002Z,1018.49
2017-04-09T00:00:50.996Z,1018.48
2017-04-09T00:01:00.990Z,1018.45
2017-04-09T00:01:10.984Z,1018.41
2017-04-09T00:01:20.979Z,1018.4
2017-04-09T00:01:30.971Z,1018.4
2017-04-09T00:01:40.965Z,1018.47
2017-04-09T00:01:50.626Z,1018.46
2017-04-09T00:02:00.954Z,1018.44
2017-04-09T00:02:10.278Z,1018.43
2017-04-09T00:02:20.940Z,1018.42
2017-04-09T00:02:30.937Z,1018.43
2017-04-09T00:02:40.929Z,1018.47
2017-04-09T00:02:50.593Z,1018.42
2017-04-09T00:03:00.920Z,1018.43
2017-04-09T00:03:10.912Z,1018.43
2017-04-09T00:03:20.906Z,1018.45
2017-04-09T00:03:30.898Z,1018.47
2017-04-09T00:03:40.894Z,1018.4
2017-04-09T00:03:50.556Z,1018.47
2017-04-09T00:04:00.881Z,1018.43
2017-04-09T00:04:10.543Z,1018.43
2017-04-09T00:04:20.868Z,1018.43
2017-04-09T00:04:30.865Z,1018.42
2017-04-09T00:04:40.863Z,1018.43
2017-04-09T00:04:50.851Z,1018.45
2017-04-09T00:05:00.511Z,1018.41
2017-04-09T00:05:10.842Z,1018.41
2017-04-09T00:05:20.837Z,1018.41
2017-04-09T00:05:30.829Z,1018.4
2017-04-09T00:05:40.820Z,1018.43
2017-04-09T00:05:50.819Z,1018.4
2017-04-09T00:06:00.477Z,1018.39
2017-04-09T00:06:10.802Z,1018.42
2017-04-09T00:06:20.799Z,1018.42
2017-04-09T00:06:30.798Z,1018.39
2017-04-09T00:06:40.786Z,1018.37
2017-04-09T00:06:50.780Z,1018.4
2017-04-09T00:07:00.774Z,1018.39
2017-04-09T00:07:10.770Z,1018.38
2017-04-09T00:07:20.765Z,1018.38
2017-04-09T00:07:30.756Z,1018.37
2017-04-09T00:07:40.751Z,1018.42
2017-04-09T00:07:50.413Z,1018.44
2017-04-09T00:08:00.739Z,1018.42
2017-04-09T00:08:10.737Z,1018.42
2017-04-09T00:08:20.730Z,1018.42
2017-04-09T00:08:30.723Z,1018.38
2017-04-09T00:08:40.762Z,1018.41
2017-04-09T00:08:50.709Z,1018.41
2017-04-09T00:09:00.702Z,1018.36
2017-04-09T00:09:10.699Z,1018.4
2017-04-09T00:09:20.690Z,1018.36
2017-04-09T00:09:30.685Z,1018.39
2017-04-09T00:09:40.676Z,1018.41
2017-04-09T00:09:50.673Z,1018.37
2017-04-09T00:10:00.668Z,1018.36
2017-04-09T00:10:10.662Z,1018.36
2017-04-09T00:10:20.657Z,1018.37
2017-04-09T00:10:30.649Z,1018.38
2017-04-09T00:10:40.644Z,1018.39
2017-04-09T00:10:50.637Z,1018.34
2017-04-09T00:11:00.630Z,1018.39
2017-04-09T00:11:10.289Z,1018.36
2017-04-09T00:11:20.286Z,1018.32
2017-04-09T00:11:30.615Z,1018.4
2017-04-09T00:11:40.861Z,1018.39
2017-04-09T00:11:50.601Z,1018.41
2017-04-09T00:12:00.596Z,1018.37
2017-04-09T00:12:10.594Z,1018.36
2017-04-09T00:12:20.583Z,1018.32
2017-04-09T00:12:30.577Z,1018.36
2017-04-09T00:12:40.933Z,1018.29
2017-04-09T00:12:50.568Z,1018.33
2017-04-09T00:13:00.562Z,1018.33
2017-04-09T00:13:10.555Z,1018.31
2017-04-09T00:13:20.551Z,1018.31
2017-04-09T00:13:30.541Z,1018.32
2017-04-09T00:13:40.538Z,1018.32
2017-04-09T00:13:50.532Z,1018.3
2017-04-09T00:14:00.523Z,1018.31
2017-04-09T00:14:10.517Z,1018.31
2017-04-09T00:14:20.512Z,1018.32
2017-04-09T00:14:30.508Z,1018.27
2017-04-09T00:14:40.502Z,1018.37
2017-04-09T00:14:50.496Z,1018.3
2017-04-09T00:15:00.487Z,1018.28
2017-04-09T00:15:10.484Z,1018.27
2017-04-09T00:15:20.143Z,1018.29
2017-04-09T00:15:30.469Z,1018.33
2017-04-09T00:15:40.466Z,1018.28
2017-04-09T00:15:50.462Z,1018.27
2017-04-09T00:16:00.114Z,1018.33
2017-04-09T00:16:10.448Z,1018.3
2017-04-09T00:16:20.107Z,1018.26
2017-04-09T00:16:30.436Z,1018.35
2017-04-09T00:16:40.679Z,1018.25
2017-04-09T00:16:50.421Z,1018.31
2017-04-09T00:17:00.083Z,1018.28
2017-04-09T00:17:10.075Z,1018.26
2017-04-09T00:17:20.404Z,1018.31
2017-04-09T00:17:30.399Z,1018.27
2017-04-09T00:17:40.390Z,1018.31
2017-04-09T00:17:50.386Z,1018.25
2017-04-09T00:18:00.381Z,1018.31
2017-04-09T00:18:10.376Z,1018.28
2017-04-09T00:18:20.369Z,1018.26
2017-04-09T00:18:30.031Z,1018.23
2017-04-09T00:18:40.024Z,1018.24
2017-04-09T00:18:50.351Z,1018.24
2017-04-09T00:19:00.344Z,1018.25
2017-04-09T00:19:10.005Z,1018.27
2017-04-09T00:19:20.335Z,1018.25
2017-04-09T00:19:30.328Z,1018.31
2017-04-09T00:19:40.323Z,1018.22
2017-04-09T00:19:50.316Z,1018.21
2017-04-09T00:20:00.307Z,1018.22
2017-04-09T00:20:10.302Z,1018.3
2017-04-09T00:20:20.295Z,1018.19
2017-04-09T00:20:29.954Z,1018.25
2017-04-09T00:20:40.284Z,1018.27
2017-04-09T00:20:50.277Z,1018.21
2017-04-09T00:20:59.939Z,1018.24
2017-04-09T00:21:10.268Z,1018.22
2017-04-09T00:21:20.261Z,1018.24
2017-04-09T00:21:30.255Z,1018.23
2017-04-09T00:21:40.547Z,1018.23
2017-04-09T00:21:50.245Z,1018.27
2017-04-09T00:22:00.238Z,1018.3
2017-04-09T00:22:09.897Z,1018.3
2017-04-09T00:22:20.578Z,1018.28
2017-04-09T00:22:30.220Z,1018.22
2017-04-09T00:22:40.213Z,1018.3
2017-04-09T00:22:50.207Z,1018.27
2017-04-09T00:23:00.199Z,1018.25
2017-04-09T00:23:10.195Z,1018.24
2017-04-09T00:23:20.188Z,1018.25
2017-04-09T00:23:30.180Z,1018.2
2017-04-09T00:23:40.180Z,1018.23
2017-04-09T00:23:49.837Z,1018.25
2017-04-09T00:24:00.165Z,1018.27
2017-04-09T00:24:10.165Z,1018.23
2017-04-09T00:24:20.153Z,1018.24
2017-04-09T00:24:30.145Z,1018.28
2017-04-09T00:24:40.142Z,1018.27
2017-04-09T00:24:50.135Z,1018.24
2017-04-09T00:25:00.131Z,1018.29
2017-04-09T00:25:09.790Z,1018.26
2017-04-09T00:25:20.144Z,1018.24
2017-04-09T00:25:30.109Z,1018.26
2017-04-09T00:25:40.105Z,1018.23
2017-04-09T00:25:49.765Z,1018.25
2017-04-09T00:26:00.096Z,1018.22
2017-04-09T00:26:10.085Z,1018.26
2017-04-09T00:26:20.083Z,1018.24
2017-04-09T00:26:30.076Z,1018.29
2017-04-09T00:26:40.072Z,1018.25
2017-04-09T00:26:50.070Z,1018.21
2017-04-09T00:27:00.057Z,1018.22
2017-04-09T00:27:10.050Z,1018.22
2017-04-09T00:27:20.046Z,1018.28
2017-04-09T00:27:30.067Z,1018.23
2017-04-09T00:27:40.035Z,1018.22
2017-04-09T00:27:50.027Z,1018.25
2017-04-09T00:28:00.018Z,1018.21
2017-04-09T00:28:10.017Z,1018.3
2017-04-09T00:28:20.009Z,1018.28
2017-04-09T00:28:30.002Z,1018.25
2017-04-09T00:28:39.998Z,1018.24
2017-04-09T00:28:49.992Z,1018.27
2017-04-09T00:28:59.987Z,1018.25
2017-04-09T00:29:09.979Z,1018.3
2017-04-09T00:29:19.975Z,1018.26
2017-04-09T00:29:29.970Z,1018.26
2017-04-09T00:29:39.290Z,1018.26
2017-04-09T00:29:49.958Z,1018.23
2017-04-09T00:29:59.949Z,1018.24
2017-04-09T00:30:09.940Z,1018.3
2017-04-09T00:30:19.937Z,1018.28
2017-04-09T00:30:29.932Z,1018.24
2017-04-09T00:30:39.922Z,1018.23
2017-04-09T00:30:49.921Z,1018.26
2017-04-09T00:30:59.915Z,1018.2
2017-04-09T00:31:09.908Z,1018.26
2017-04-09T00:31:19.904Z,1018.2
2017-04-09T00:31:29.892Z,1018.26
2017-04-09T00:31:39.889Z,1018.26
2017-04-09T00:31:49.886Z,1018.25
2017-04-09T00:31:59.877Z,1018.29
2017-04-09T00:32:09.872Z,1018.25
2017-04-09T00:32:19.868Z,1018.25
2017-04-09T00:32:29.866Z,1018.27
2017-04-09T00:32:39.852Z,1018.26
2017-04-09T00:32:49.512Z,1018.23
2017-04-09T00:32:59.843Z,1018.26
2017-04-09T00:33:09.833Z,1018.23
2017-04-09T00:33:19.831Z,1018.22
2017-04-09T00:33:29.492Z,1018.27
2017-04-09T00:33:39.818Z,1018.25
2017-04-09T00:33:49.812Z,1018.27
2017-04-09T00:33:59.806Z,1018.22
2017-04-09T00:34:09.801Z,1018.22
2017-04-09T00:34:19.794Z,1018.22
2017-04-09T00:34:29.791Z,1018.28
2017-04-09T00:34:39.781Z,1018.24
2017-04-09T00:34:49.777Z,1018.27
2017-04-09T00:34:59.771Z,1018.24
2017-04-09T00:35:09.764Z,1018.22
2017-04-09T00:35:19.755Z,1018.2
2017-04-09T00:35:29.752Z,1018.24
2017-04-09T00:35:39.743Z,1018.24
2017-04-09T00:35:49.739Z,1018.21
2017-04-09T00:35:59.734Z,1018.24
2017-04-09T00:36:10.095Z,1018.15
2017-04-09T00:36:19.718Z,1018.2
2017-04-09T00:36:29.715Z,1018.22
2017-04-09T00:36:39.961Z,1018.22
2017-04-09T00:36:49.706Z,1018.2
2017-04-09T00:36:59.699Z,1018.18
2017-04-09T00:37:09.695Z,1018.18
2017-04-09T00:37:19.684Z,1018.2
2017-04-09T00:37:29.680Z,1018.19
2017-04-09T00:37:39.672Z,1018.16
2017-04-09T00:37:49.669Z,1018.2
2017-04-09T00:37:59.662Z,1018.16
2017-04-09T00:38:09.655Z,1018.19
2017-04-09T00:38:19.652Z,1018.21
2017-04-09T00:38:29.646Z,1018.2
2017-04-09T00:38:39.305Z,1018.25
2017-04-09T00:38:49.631Z,1018.2
2017-04-09T00:38:59.625Z,1018.26
2017-04-09T00:39:09.622Z,1018.22
2017-04-09T00:39:19.617Z,1018.19
2017-04-09T00:39:29.608Z,1018.23
2017-04-09T00:39:39.601Z,1018.2
2017-04-09T00:39:49.258Z,1018.24
2017-04-09T00:39:59.255Z,1018.23
2017-04-09T00:40:09.584Z,1018.18
2017-04-09T00:40:19.240Z,1018.22
2017-04-09T00:40:29.570Z,1018.25
2017-04-09T00:40:39.566Z,1018.22
2017-04-09T00:40:49.225Z,1018.17
2017-04-09T00:40:59.918Z,1018.24
2017-04-09T00:41:09.549Z,1018.25
2017-04-09T00:41:19.208Z,1018.23
2017-04-09T00:41:29.537Z,1018.19
2017-04-09T00:41:39.779Z,1018.23
2017-04-09T00:41:49.189Z,1018.23
2017-04-09T00:41:59.516Z,1018.18
2017-04-09T00:42:09.512Z,1018.21
2017-04-09T00:42:19.172Z,1018.24
2017-04-09T00:42:29.498Z,1018.24
2017-04-09T00:42:39.537Z,1018.18
2017-04-09T00:42:49.486Z,1018.19
2017-04-09T00:42:59.143Z,1018.22
2017-04-09T00:43:09.472Z,1018.23
2017-04-09T00:43:19.133Z,1018.2
2017-04-09T00:43:29.826Z,1018.25
2017-04-09T00:43:39.460Z,1018.23
2017-04-09T00:43:49.248Z,1018.22
2017-04-09T00:43:59.443Z,1018.22
2017-04-09T00:44:09.102Z,1018.22
2017-04-09T00:44:18.764Z,1018.2
2017-04-09T00:44:29.095Z,1018.19
2017-04-09T00:44:39.421Z,1018.22
2017-04-09T00:44:49.415Z,1018.24
2017-04-09T00:44:59.409Z,1018.23
2017-04-09T00:45:09.401Z,1018.19
2017-04-09T00:45:19.398Z,1018.19
2017-04-09T00:45:29.391Z,1018.22
2017-04-09T00:45:39.386Z,1018.18
2017-04-09T00:45:49.378Z,1018.24
2017-04-09T00:45:59.730Z,1018.23
2017-04-09T00:46:09.368Z,1018.25
2017-04-09T00:46:19.363Z,1018.19
2017-04-09T00:46:28.687Z,1018.18
2017-04-09T00:46:39.599Z,1018.24
2017-04-09T00:46:49.341Z,1018.19
2017-04-09T00:46:59.007Z,1018.24
2017-04-09T00:47:09.328Z,1018.22
2017-04-09T00:47:19.324Z,1018.18
2017-04-09T00:47:29.319Z,1018.23
2017-04-09T00:47:39.311Z,1018.24
2017-04-09T00:47:49.307Z,1018.22
2017-04-09T00:47:59.300Z,1018.24
2017-04-09T00:48:09.293Z,1018.23
2017-04-09T00:48:19.289Z,1018.24
2017-04-09T00:48:29.279Z,1018.19
2017-04-09T00:48:39.275Z,1018.23
2017-04-09T00:48:48.936Z,1018.2
2017-04-09T00:48:59.264Z,1018.21
2017-04-09T00:49:09.647Z,1018.17
2017-04-09T00:49:18.587Z,1018.19
2017-04-09T00:49:29.248Z,1018.18
2017-04-09T00:49:39.238Z,1018.14
2017-04-09T00:49:49.233Z,1018.22
2017-04-09T00:49:59.230Z,1018.2
2017-04-09T00:50:08.887Z,1018.16
2017-04-09T00:50:19.219Z,1018.23
2017-04-09T00:50:28.876Z,1018.19
2017-04-09T00:50:38.869Z,1018.25
2017-04-09T00:50:48.867Z,1018.22
2017-04-09T00:50:59.194Z,1018.16
2017-04-09T00:51:09.185Z,1018.18
2017-04-09T00:51:18.848Z,1018.24
2017-04-09T00:51:29.176Z,1018.21
2017-04-09T00:51:38.884Z,1018.19
2017-04-09T00:51:49.166Z,1018.18
2017-04-09T00:51:59.154Z,1018.22
2017-04-09T00:52:09.153Z,1018.2
2017-04-09T00:52:19.145Z,1018.2
2017-04-09T00:52:29.160Z,1018.18
2017-04-09T00:52:38.798Z,1018.19
2017-04-09T00:52:49.126Z,1018.2
2017-04-09T00:52:59.123Z,1018.24
2017-04-09T00:53:09.115Z,1018.19
2017-04-09T00:53:18.775Z,1018.23
2017-04-09T00:53:28.766Z,1018.2
2017-04-09T00:53:39.097Z,1018.16
2017-04-09T00:53:49.093Z,1018.15
2017-04-09T00:53:59.084Z,1018.18
2017-04-09T00:54:09.081Z,1018.15
2017-04-09T00:54:19.079Z,1018.17
2017-04-09T00:54:29.068Z,1018.21
2017-04-09T00:54:38.725Z,1018.19
2017-04-09T00:54:49.052Z,1018.22
2017-04-09T00:54:59.047Z,1018.14
2017-04-09T00:55:09.045Z,1018.2
2017-04-09T00:55:18.700Z,1018.21
2017-04-09T00:55:29.031Z,1018.14
2017-04-09T00:55:39.023Z,1018.21
2017-04-09T00:55:49.017Z,1018.21
2017-04-09T00:55:59.010Z,1018.18
2017-04-09T00:56:09.007Z,1018.18
2017-04-09T00:56:19.002Z,1018.15
2017-04-09T00:56:28.995Z,1018.15
2017-04-09T00:56:38.986Z,1018.17
2017-04-09T00:56:48.980Z,1018.13
2017-04-09T00:56:58.979Z,1018.2
2017-04-09T00:57:08.969Z,1018.22
2017-04-09T00:57:18.630Z,1018.16
2017-04-09T00:57:28.625Z,1018.15
2017-04-09T00:57:38.953Z,1018.21
2017-04-09T00:57:48.946Z,1018.18
2017-04-09T00:57:58.942Z,1018.18
2017-04-09T00:58:08.600Z,1018.18
2017-04-09T00:58:18.595Z,1018.18
2017-04-09T00:58:28.587Z,1018.18
2017-04-09T00:58:38.582Z,1018.17
2017-04-09T00:58:48.911Z,1018.16
2017-04-09T00:58:58.904Z,1018.19
2017-04-09T00:59:08.903Z,1018.13
2017-04-09T00:59:18.892Z,1018.12
2017-04-09T00:59:28.883Z,1018.14
2017-04-09T00:59:38.544Z,1018.21
2017-04-09T00:59:48.877Z,1018.16
2017-04-09T00:59:58.867Z,1018.14
2017-04-09T01:00:08.867Z,1018.12
2017-04-09T01:00:18.853Z,1018.16
2017-04-09T01:00:28.847Z,1018.18
2017-04-09T01:00:38.875Z,1018.18
2017-04-09T01:00:48.839Z,1018.14
2017-04-09T01:00:58.833Z,1018.15
2017-04-09T01:01:08.828Z,1018.13
2017-04-09T01:01:18.825Z,1018.14
2017-04-09T01:01:28.813Z,1018.17
2017-04-09T01:01:38.805Z,1018.13
2017-04-09T01:01:48.799Z,1018.21
2017-04-09T01:01:58.797Z,1018.15
2017-04-09T01:02:08.793Z,1018.13
2017-04-09T01:02:18.448Z,1018.16
2017-04-09T01:02:28.784Z,1018.13
2017-04-09T01:02:38.772Z,1018.15
2017-04-09T01:02:48.767Z,1018.18
2017-04-09T01:02:58.757Z,1018.14
2017-04-09T01:03:08.756Z,1018.13
2017-04-09T01:03:18.746Z,1018.17
2017-04-09T01:03:28.746Z,1018.15
2017-04-09T01:03:38.399Z,1018.12
2017-04-09T01:03:48.730Z,1018.13
2017-04-09T01:03:58.730Z,1018.19
2017-04-09T01:04:08.718Z,1018.15
2017-04-09T01:04:18.709Z,1018.18
2017-04-09T01:04:28.706Z,1018.18
2017-04-09T01:04:38.698Z,1018.17
2017-04-09T01:04:48.692Z,1018.15
2017-04-09T01:04:58.687Z,1018.15
2017-04-09T01:05:08.683Z,1018.15
2017-04-09T01:05:18.676Z,1018.17
2017-04-09T01:05:28.671Z,1018.13
2017-04-09T01:05:38.664Z,1018.15
2017-04-09T01:05:48.657Z,1018.13
2017-04-09T01:05:58.649Z,1018.14
2017-04-09T01:06:08.642Z,1018.16
2017-04-09T01:06:18.642Z,1018.16
2017-04-09T01:06:28.634Z,1018.17
2017-04-09T01:06:38.876Z,1018.19
2017-04-09T01:06:48.622Z,1018.22
2017-04-09T01:06:58.614Z,1018.16
2017-04-09T01:07:08.612Z,1018.18
2017-04-09T01:07:18.605Z,1018.14
2017-04-09T01:07:28.598Z,1018.17
2017-04-09T01:07:38.593Z,1018.17
2017-04-09T01:07:48.585Z,1018.1
2017-04-09T01:07:58.582Z,1018.16
2017-04-09T01:08:08.574Z,1018.18
2017-04-09T01:08:18.563Z,1018.17
2017-04-09T01:08:28.560Z,1018.15
2017-04-09T01:08:38.553Z,1018.17
2017-04-09T01:08:48.550Z,1018.17
2017-04-09T01:08:58.543Z,1018.17
2017-04-09T01:09:08.537Z,1018.14
2017-04-09T01:09:18.529Z,1018.16
2017-04-09T01:09:28.526Z,1018.1
2017-04-09T01:09:38.885Z,1018.17
2017-04-09T01:09:48.513Z,1018.18
2017-04-09T01:09:58.507Z,1018.22
2017-04-09T01:10:08.499Z,1018.12
2017-04-09T01:10:18.160Z,1018.15
2017-04-09T01:10:28.488Z,1018.17
2017-04-09T01:10:38.481Z,1018.17
2017-04-09T01:10:48.477Z,1018.14
2017-04-09T01:10:58.468Z,1018.13
2017-04-09T01:11:08.465Z,1018.16
2017-04-09T01:11:18.457Z,1018.13
2017-04-09T01:11:28.451Z,1018.11
2017-04-09T01:11:38.696Z,1018.08
2017-04-09T01:11:48.106Z,1018.11
2017-04-09T01:11:58.434Z,1018.09
2017-04-09T01:12:08.096Z,1018.09
2017-04-09T01:12:18.420Z,1018.11
2017-04-09T01:12:28.418Z,1018.14
2017-04-09T01:12:38.411Z,1018.15
2017-04-09T01:12:48.404Z,1018.16
2017-04-09T01:12:58.398Z,1018.24
2017-04-09T01:13:08.061Z,1018.16
2017-04-09T01:13:18.052Z,1018.18
2017-04-09T01:13:28.382Z,1018.13
2017-04-09T01:13:38.373Z,1018.11
2017-04-09T01:13:48.370Z,1018.14
2017-04-09T01:13:58.363Z,1018.16
2017-04-09T01:14:08.018Z,1018.11
2017-04-09T01:14:18.351Z,1018.13
2017-04-09T01:14:28.341Z,1018.08
2017-04-09T01:14:38.338Z,1018.13
2017-04-09T01:14:48.331Z,1018.13
2017-04-09T01:14:58.324Z,1018.16
2017-04-09T01:15:08.320Z,1018.13
2017-04-09T01:15:17.643Z,1018.13
2017-04-09T01:15:28.308Z,1018.15
2017-04-09T01:15:38.299Z,1018.14
2017-04-09T01:15:48.298Z,1018.11
2017-04-09T01:15:58.290Z,1018.15
2017-04-09T01:16:08.284Z,1018.15
2017-04-09T01:16:18.278Z,1018.11
2017-04-09T01:16:28.273Z,1018.12
2017-04-09T01:16:38.521Z,1018.14
2017-04-09T01:16:48.258Z,1018.13
2017-04-09T01:16:58.253Z,1018.12
2017-04-09T01:17:08.249Z,1018.12
2017-04-09T01:17:18.241Z,1018.11
2017-04-09T01:17:28.234Z,1018.19
2017-04-09T01:17:38.231Z,1018.13
2017-04-09T01:17:48.222Z,1018.07
2017-04-09T01:17:58.215Z,1018.08
2017-04-09T01:18:08.211Z,1018.15
2017-04-09T01:18:18.207Z,1018.12
2017-04-09T01:18:27.863Z,1018.05
2017-04-09T01:18:38.193Z,1018.09
2017-04-09T01:18:48.188Z,1018.1
2017-04-09T01:18:58.183Z,1018.07
2017-04-09T01:19:08.174Z,1018.11
2017-04-09T01:19:18.168Z,1018.07
2017-04-09T01:19:28.165Z,1018.05
2017-04-09T01:19:37.823Z,1018.06
2017-04-09T01:19:48.548Z,1018.09
2017-04-09T01:19:58.142Z,1018.1
2017-04-09T01:20:08.138Z,1018.13
2017-04-09T01:20:18.130Z,1018.11
2017-04-09T01:20:28.127Z,1018.11
2017-04-09T01:20:38.118Z,1018.07
2017-04-09T01:20:48.112Z,1018.06
2017-04-09T01:20:58.107Z,1018.08
2017-04-09T01:21:08.103Z,1018.11
2017-04-09T01:21:18.093Z,1018.02
2017-04-09T01:21:28.091Z,1018.05
2017-04-09T01:21:37.798Z,1018.06
2017-04-09T01:21:48.079Z,1018.1
2017-04-09T01:21:57.400Z,1018.09
2017-04-09T01:22:08.064Z,1018.03
2017-04-09T01:22:17.726Z,1018.07
2017-04-09T01:22:28.054Z,1018.05
2017-04-09T01:22:38.049Z,1018.04
2017-04-09T01:22:48.041Z,1018.01
2017-04-09T01:22:58.034Z,1018.05
2017-04-09T01:23:08.030Z,1018.04
2017-04-09T01:23:18.025Z,1018.04
2017-04-09T01:23:28.014Z,1018.07
2017-04-09T01:23:38.009Z,1018.07
2017-04-09T01:23:47.669Z,1018.04
2017-04-09T01:23:58.000Z,1018.05
2017-04-09T01:24:07.995Z,1018.12
2017-04-09T01:24:17.987Z,1018.11
2017-04-09T01:24:27.645Z,1018.11
2017-04-09T01:24:37.973Z,1018.09
2017-04-09T01:24:47.968Z,1018.05
2017-04-09T01:24:57.966Z,1018.06
2017-04-09T01:25:07.958Z,1018.04
2017-04-09T01:25:17.618Z,1018.06
2017-04-09T01:25:27.974Z,1018.04
2017-04-09T01:25:37.605Z,1018.11
2017-04-09T01:25:47.932Z,1018.09
2017-04-09T01:25:57.927Z,1018.03
2017-04-09T01:26:07.923Z,1018.07
2017-04-09T01:26:17.913Z,1018.02
2017-04-09T01:26:27.573Z,1018.04
2017-04-09T01:26:37.900Z,1018.09
2017-04-09T01:26:47.898Z,1018.1
2017-04-09T01:26:57.553Z,1018.12
2017-04-09T01:27:07.888Z,1018.07
2017-04-09T01:27:17.876Z,1018.06
2017-04-09T01:27:27.873Z,1018.04
2017-04-09T01:27:37.534Z,1018.08
2017-04-09T01:27:47.884Z,1018.06
2017-04-09T01:27:57.853Z,1018.11
2017-04-09T01:28:07.878Z,1018.05
2017-04-09T01:28:17.843Z,1018.07
2017-04-09T01:28:27.836Z,1018.12
2017-04-09T01:28:37.498Z,1018.01
2017-04-09T01:28:48.177Z,1018.1
2017-04-09T01:28:57.819Z,1018.06
2017-04-09T01:29:07.811Z,1018.11
2017-04-09T01:29:17.803Z,1018.08
2017-04-09T01:29:27.801Z,1018.09
2017-04-09T01:29:37.456Z,1018.03
2017-04-09T01:29:47.810Z,1018.09
2017-04-09T01:29:57.785Z,1018.1
2017-04-09T01:30:08.147Z,1018.1
2017-04-09T01:30:17.784Z,1018.06
2017-04-09T01:30:27.432Z,1018.09
2017-04-09T01:30:37.756Z,1018.14
2017-04-09T01:30:47.753Z,1018.08
2017-04-09T01:30:57.745Z,1018.12
2017-04-09T01:31:07.405Z,1018.08
2017-04-09T01:31:17.741Z,1018.1
2017-04-09T01:31:27.725Z,1018.08
2017-04-09T01:31:37.974Z,1018.09
2017-04-09T01:31:47.740Z,1018.07
2017-04-09T01:31:57.709Z,1018.07
2017-04-09T01:32:07.702Z,1018.06
2017-04-09T01:32:17.694Z,1018.11
2017-04-09T01:32:27.689Z,1018.08
2017-04-09T01:32:37.686Z,1018.07
2017-04-09T01:32:47.677Z,1018.1
2017-04-09T01:32:57.673Z,1018.05
2017-04-09T01:33:07.670Z,1018.08
2017-04-09T01:33:17.327Z,1018.07
2017-04-09T01:33:27.657Z,1018.1
2017-04-09T01:33:37.650Z,1018.1
2017-04-09T01:33:47.646Z,1018.13
2017-04-09T01:33:57.639Z,1018.11
2017-04-09T01:34:07.982Z,1018.09
2017-04-09T01:34:17.626Z,1018.03
2017-04-09T01:34:27.618Z,1018.09
2017-04-09T01:34:37.275Z,1018.06
2017-04-09T01:34:47.607Z,1018.08
2017-04-09T01:34:57.599Z,1018.08
2017-04-09T01:35:07.602Z,1018.05
2017-04-09T01:35:17.586Z,1018.04
2017-04-09T01:35:27.251Z,1018.09
2017-04-09T01:35:37.573Z,1018.07
2017-04-09T01:35:47.572Z,1018.09
2017-04-09T01:35:57.560Z,1018.05
2017-04-09T01:36:07.557Z,1018.05
2017-04-09T01:36:17.214Z,1018.03
2017-04-09T01:36:27.547Z,1018.04
2017-04-09T01:36:37.791Z,1018.02
2017-04-09T01:36:47.900Z,1018
2017-04-09T01:36:57.527Z,1018.07
2017-04-09T01:37:07.523Z,1018.06
2017-04-09T01:37:17.530Z,1018.03
2017-04-09T01:37:27.540Z,1018
2017-04-09T01:37:37.501Z,1017.99
2017-04-09T01:37:47.503Z,1018.02
2017-04-09T01:37:57.495Z,1018.06
2017-04-09T01:38:07.484Z,1018.07
2017-04-09T01:38:17.143Z,1018.04
2017-04-09T01:38:27.474Z,1018.01
2017-04-09T01:38:37.466Z,1018.06
2017-04-09T01:38:47.817Z,1018.04
2017-04-09T01:38:57.120Z,1018.02
2017-04-09T01:39:07.113Z,1018.01
2017-04-09T01:39:17.445Z,1018.03
2017-04-09T01:39:27.437Z,1018.05
2017-04-09T01:39:37.431Z,1018.01
2017-04-09T01:39:47.425Z,1018.03
2017-04-09T01:39:57.450Z,1017.98
2017-04-09T01:40:07.414Z,1017.96
2017-04-09T01:40:17.405Z,1017.97
2017-04-09T01:40:27.401Z,1017.97
2017-04-09T01:40:37.059Z,1018.01
2017-04-09T01:40:47.388Z,1018.03
2017-04-09T01:40:57.385Z,1018.01
2017-04-09T01:41:07.376Z,1018.02
2017-04-09T01:41:17.371Z,1018.03
2017-04-09T01:41:27.366Z,1017.97
2017-04-09T01:41:37.659Z,1017.98
2017-04-09T01:41:47.353Z,1018.05
2017-04-09T01:41:57.702Z,1018.03
2017-04-09T01:42:07.004Z,1018.01
2017-04-09T01:42:17.332Z,1018.02
2017-04-09T01:42:27.330Z,1018.03
2017-04-09T01:42:37.323Z,1017.97
2017-04-09T01:42:47.322Z,1017.99
2017-04-09T01:42:56.972Z,1018.04
2017-04-09T01:43:07.304Z,1018.03
2017-04-09T01:43:17.298Z,1017.98
2017-04-09T01:43:27.320Z,1018.02
2017-04-09T01:43:37.283Z,1017.98
2017-04-09T01:43:46.946Z,1017.96
2017-04-09T01:43:57.272Z,1017.98
2017-04-09T01:44:07.272Z,1017.96
2017-04-09T01:44:17.259Z,1017.96
2017-04-09T01:44:27.258Z,1017.96
2017-04-09T01:44:36.914Z,1018
2017-04-09T01:44:47.245Z,1018.01
2017-04-09T01:44:57.237Z,1017.97
2017-04-09T01:45:06.898Z,1017.94
2017-04-09T01:45:16.892Z,1017.96
2017-04-09T01:45:27.240Z,1017.94
2017-04-09T01:45:37.213Z,1017.96
2017-04-09T01:45:47.207Z,1017.99
2017-04-09T01:45:57.198Z,1017.92
2017-04-09T01:46:07.195Z,1017.94
2017-04-09T01:46:17.189Z,1017.94
2017-04-09T01:46:27.185Z,1017.95
2017-04-09T01:46:37.175Z,1018
2017-04-09T01:46:47.170Z,1017.92
2017-04-09T01:46:57.165Z,1017.96
2017-04-09T01:47:07.157Z,1017.98
2017-04-09T01:47:17.151Z,1017.97
2017-04-09T01:47:27.145Z,1017.91
2017-04-09T01:47:37.141Z,1017.9
2017-04-09T01:47:47.137Z,1017.96
2017-04-09T01:47:57.130Z,1017.95
2017-04-09T01:48:07.125Z,1017.95
2017-04-09T01:48:16.779Z,1017.96
2017-04-09T01:48:27.110Z,1017.96
2017-04-09T01:48:37.145Z,1017.9
2017-04-09T01:48:47.100Z,1017.96
2017-04-09T01:48:56.419Z,1017.96
2017-04-09T01:49:07.084Z,1017.94
2017-04-09T01:49:17.079Z,1017.93
2017-04-09T01:49:27.076Z,1017.96
2017-04-09T01:49:37.066Z,1017.96
2017-04-09T01:49:47.060Z,1017.97
2017-04-09T01:49:57.052Z,1017.96
2017-04-09T01:50:06.715Z,1017.98
2017-04-09T01:50:17.044Z,1017.99
2017-04-09T01:50:27.037Z,1017.95
2017-04-09T01:50:37.030Z,1017.91
2017-04-09T01:50:47.025Z,1017.94
2017-04-09T01:50:57.021Z,1017.97
2017-04-09T01:51:07.012Z,1017.88
2017-04-09T01:51:17.007Z,1017.92
2017-04-09T01:51:27.001Z,1017.93
2017-04-09T01:51:36.995Z,1017.93
2017-04-09T01:51:46.987Z,1017.95
2017-04-09T01:51:56.979Z,1017.95
2017-04-09T01:52:06.977Z,1017.96
2017-04-09T01:52:16.968Z,1017.95
2017-04-09T01:52:26.961Z,1017.95
2017-04-09T01:52:36.961Z,1017.95
2017-04-09T01:52:46.954Z,1017.98
2017-04-09T01:52:56.945Z,1017.91
2017-04-09T01:53:06.604Z,1017.98
2017-04-09T01:53:16.940Z,1017.96
2017-04-09T01:53:27.287Z,1017.93
2017-04-09T01:53:36.917Z,1017.99
2017-04-09T01:53:46.916Z,1017.96
2017-04-09T01:53:56.907Z,1018.03
2017-04-09T01:54:06.905Z,1017.92
2017-04-09T01:54:16.896Z,1017.99
2017-04-09T01:54:26.891Z,1018.01
2017-04-09T01:54:36.552Z,1018.02
2017-04-09T01:54:46.882Z,1018.01
2017-04-09T01:54:56.875Z,1018
2017-04-09T01:55:06.534Z,1018.02
2017-04-09T01:55:16.861Z,1017.95
2017-04-09T01:55:26.855Z,1018
2017-04-09T01:55:36.853Z,1018.01
2017-04-09T01:55:46.842Z,1018.01
2017-04-09T01:55:56.836Z,1017.98
2017-04-09T01:56:06.829Z,1018.01
2017-04-09T01:56:16.825Z,1017.99
2017-04-09T01:56:26.818Z,1018.01
2017-04-09T01:56:36.813Z,1018
2017-04-09T01:56:46.473Z,1018.03
2017-04-09T01:56:56.468Z,1017.96
2017-04-09T01:57:06.793Z,1018.03
2017-04-09T01:57:17.146Z,1017.99
2017-04-09T01:57:26.806Z,1018
2017-04-09T01:57:36.773Z,1018.01
2017-04-09T01:57:46.771Z,1018.02
2017-04-09T01:57:56.766Z,1017.98
2017-04-09T01:58:06.758Z,1017.98
2017-04-09T01:58:16.752Z,1018.04
2017-04-09T01:58:26.747Z,1017.97
2017-04-09T01:58:36.737Z,1017.98
2017-04-09T01:58:46.733Z,1017.99
2017-04-09T01:58:56.732Z,1017.99
2017-04-09T01:59:06.385Z,1017.98
2017-04-09T01:59:16.714Z,1018.04
2017-04-09T01:59:26.707Z,1018.04
2017-04-09T01:59:36.705Z,1018.03
2017-04-09T01:59:46.698Z,1018
2017-04-09T01:59:56.688Z,1017.99
2017-04-09T02:00:06.682Z,1017.99
2017-04-09T02:00:16.678Z,1017.99
2017-04-09T02:00:26.671Z,1018.05
2017-04-09T02:00:36.668Z,1018.02
2017-04-09T02:00:46.662Z,1018.01
2017-04-09T02:00:56.654Z,1017.98
2017-04-09T02:01:06.649Z,1018.02
2017-04-09T02:01:16.639Z,1018